createdAt,value
2018-06-24T00:01:31.442Z,97.10
2018-06-24T00:03:58.982Z,97.10
2018-06-24T00:06:26.547Z,97.00
2018-06-24T00:08:54.090Z,97.20
2018-06-24T00:11:21.616Z,97.40
2018-06-24T00:16:16.589Z,98.00
2018-06-24T00:18:44.123Z,98.10
2018-06-24T00:21:11.663Z,98.10
2018-06-24T00:23:39.184Z,98.30
2018-06-24T00:26:06.700Z,98.60
2018-06-24T00:28:34.259Z,98.90
2018-06-24T00:31:01.784Z,98.90
2018-06-24T00:33:29.318Z,99.10
2018-06-24T00:35:56.855Z,99.20
2018-06-24T00:38:24.398Z,99.30
2018-06-24T00:40:51.950Z,99.30
2018-06-24T00:43:19.581Z,99.50
2018-06-24T00:45:47.126Z,99.40
2018-06-24T00:48:14.726Z,99.30
2018-06-24T00:50:42.266Z,99.20
2018-06-24T00:53:09.813Z,99.20
2018-06-24T00:55:37.369Z,99.10
2018-06-24T00:58:04.943Z,99.20
2018-06-24T01:00:32.501Z,99.30
2018-06-24T01:03:00.024Z,99.40
2018-06-24T01:07:55.042Z,99.50
2018-06-24T01:10:22.589Z,99.50
2018-06-24T01:12:50.109Z,99.80
2018-06-24T01:15:17.659Z,99.60
2018-06-24T01:17:45.187Z,99.80
2018-06-24T01:20:12.816Z,99.90
2018-06-24T01:22:40.360Z,99.90
2018-06-24T01:25:07.954Z,99.90
2018-06-24T01:27:35.505Z,99.80
2018-06-24T01:30:03.315Z,99.80
2018-06-24T01:32:30.866Z,99.70
2018-06-24T01:34:58.374Z,99.50
2018-06-24T01:37:25.960Z,99.50
2018-06-24T01:39:53.511Z,99.30
2018-06-24T01:42:21.146Z,99.20
2018-06-24T01:44:48.688Z,99.30
2018-06-24T01:47:16.224Z,99.40
2018-06-24T01:49:43.760Z,99.40
2018-06-24T01:52:11.305Z,99.90
2018-06-24T01:54:38.858Z,99.70
2018-06-24T01:57:06.509Z,99.70
2018-06-24T01:59:34.040Z,99.70
2018-06-24T02:02:01.593Z,99.80
2018-06-24T02:04:29.140Z,99.80
2018-06-24T02:06:56.664Z,99.80
2018-06-24T02:09:24.202Z,99.80
2018-06-24T02:11:51.740Z,99.90
2018-06-24T02:14:19.271Z,99.90
2018-06-24T02:16:46.788Z,99.90
2018-06-24T02:19:14.298Z,99.80
2018-06-24T02:21:41.816Z,99.80
2018-06-24T02:24:09.352Z,99.80
2018-06-24T02:26:36.894Z,99.90
2018-06-24T02:29:04.466Z,99.90
2018-06-24T02:31:32.022Z,99.90
2018-06-24T02:33:59.592Z,99.90
2018-06-24T02:36:27.142Z,99.90
2018-06-24T02:38:54.748Z,99.90
2018-06-24T02:41:22.354Z,99.90
2018-06-24T02:43:49.919Z,99.90
2018-06-24T02:46:17.460Z,99.90
2018-06-24T02:48:44.994Z,99.90
2018-06-24T02:51:12.879Z,99.90
2018-06-24T02:53:40.535Z,99.90
2018-06-24T02:56:07.976Z,99.90
2018-06-24T02:58:35.518Z,99.90
2018-06-24T03:01:03.150Z,99.90
2018-06-24T03:03:30.671Z,99.90
2018-06-24T03:05:58.365Z,99.90
2018-06-24T03:08:26.033Z,99.90
2018-06-24T03:10:53.572Z,99.90
2018-06-24T03:13:21.105Z,99.90
2018-06-24T03:15:48.796Z,99.90
2018-06-24T03:20:43.823Z,99.90
2018-06-24T03:23:13.277Z,99.90
2018-06-24T03:25:40.913Z,99.90
2018-06-24T03:28:08.456Z,99.90
2018-06-24T03:30:36.071Z,99.90
2018-06-24T03:33:03.811Z,99.90
2018-06-24T03:35:31.457Z,99.90
2018-06-24T03:37:58.991Z,99.90
2018-06-24T03:40:26.527Z,99.90
2018-06-24T03:42:54.087Z,99.90
2018-06-24T03:45:21.645Z,99.90
2018-06-24T03:47:49.175Z,99.90
2018-06-24T03:50:16.693Z,99.90
2018-06-24T03:52:44.230Z,99.90
2018-06-24T03:55:11.760Z,99.90
2018-06-24T03:57:39.300Z,99.90
2018-06-24T04:00:07.308Z,99.90
2018-06-24T04:02:35.016Z,99.90
2018-06-24T04:05:02.618Z,99.90
2018-06-24T04:07:30.187Z,99.90
2018-06-24T04:09:57.782Z,99.90
2018-06-24T04:12:25.314Z,99.90
2018-06-24T04:14:52.890Z,99.90
2018-06-24T04:17:20.418Z,99.90
2018-06-24T04:19:47.960Z,99.90
2018-06-24T04:22:15.513Z,99.90
2018-06-24T04:24:43.063Z,99.90
2018-06-24T04:27:10.570Z,99.90
2018-06-24T04:29:38.104Z,99.90
2018-06-24T04:32:05.658Z,99.90
2018-06-24T04:34:33.294Z,99.90
2018-06-24T04:37:00.881Z,99.90
2018-06-24T04:39:28.405Z,99.90
2018-06-24T04:41:55.998Z,99.90
2018-06-24T04:44:23.570Z,99.90
2018-06-24T04:46:51.265Z,99.90
2018-06-24T04:49:18.812Z,99.90
2018-06-24T04:51:46.468Z,99.90
2018-06-24T04:54:13.887Z,99.90
2018-06-24T04:56:41.542Z,99.90
2018-06-24T04:59:09.140Z,99.90
2018-06-24T05:01:36.694Z,99.90
2018-06-24T05:04:04.298Z,99.90
2018-06-24T05:06:31.967Z,99.90
2018-06-24T05:08:59.431Z,99.90
2018-06-24T05:11:26.968Z,99.90
2018-06-24T05:13:54.518Z,99.90
2018-06-24T05:16:22.026Z,99.90
2018-06-24T05:18:49.590Z,99.90
2018-06-24T05:21:17.149Z,99.90
2018-06-24T05:23:44.732Z,99.90
2018-06-24T05:26:12.279Z,99.90
2018-06-24T05:28:39.854Z,99.20
2018-06-24T05:31:07.449Z,98.30
2018-06-24T05:33:35.044Z,97.60
2018-06-24T05:36:02.779Z,96.70
2018-06-24T05:38:30.362Z,96.40
2018-06-24T05:40:57.953Z,96.00
2018-06-24T05:43:25.585Z,96.50
2018-06-24T05:45:53.130Z,96.00
2018-06-24T05:48:20.722Z,95.90
2018-06-24T05:50:48.303Z,95.80
2018-06-24T05:53:15.874Z,95.60
2018-06-24T05:55:43.401Z,95.30
2018-06-24T05:58:10.995Z,94.50
2018-06-24T06:00:38.565Z,94.70
2018-06-24T06:03:06.123Z,94.50
2018-06-24T06:05:33.691Z,94.40
2018-06-24T06:08:01.263Z,94.00
2018-06-24T06:10:28.925Z,93.90
2018-06-24T06:12:56.444Z,94.20
2018-06-24T06:15:23.947Z,93.90
2018-06-24T06:17:51.544Z,93.40
2018-06-24T06:20:19.271Z,93.60
2018-06-24T06:22:46.832Z,93.90
2018-06-24T06:25:14.451Z,94.30
2018-06-24T06:27:42.019Z,93.10
2018-06-24T06:30:09.597Z,92.30
2018-06-24T06:32:37.156Z,92.00
2018-06-24T06:35:05.173Z,92.10
2018-06-24T06:37:32.717Z,91.50
2018-06-24T06:40:00.258Z,91.10
2018-06-24T06:42:27.879Z,90.90
2018-06-24T06:44:55.513Z,90.80
2018-06-24T06:47:23.015Z,90.70
2018-06-24T06:49:50.570Z,90.50
2018-06-24T06:52:18.149Z,90.50
2018-06-24T06:54:45.740Z,90.90
2018-06-24T06:57:13.362Z,90.80
2018-06-24T06:59:41.350Z,90.10
2018-06-24T07:02:09.000Z,87.20
2018-06-24T07:04:36.682Z,87.00
2018-06-24T07:07:04.226Z,87.50
2018-06-24T07:09:31.792Z,87.10
2018-06-24T07:11:59.392Z,86.00
2018-06-24T07:14:27.024Z,85.60
2018-06-24T07:16:54.636Z,84.70
2018-06-24T07:19:22.201Z,84.00
2018-06-24T07:21:49.792Z,81.30
2018-06-24T07:24:17.414Z,80.00
2018-06-24T07:26:44.979Z,78.90
2018-06-24T07:29:12.653Z,79.00
2018-06-24T07:31:40.258Z,81.10
2018-06-24T07:34:07.886Z,81.20
2018-06-24T07:36:35.492Z,78.40
2018-06-24T07:39:04.840Z,77.50
2018-06-24T07:41:32.396Z,77.60
2018-06-24T07:43:59.910Z,76.30
2018-06-24T07:46:27.428Z,76.20
2018-06-24T07:48:54.996Z,76.60
2018-06-24T07:51:22.557Z,76.60
2018-06-24T07:53:50.203Z,73.60
2018-06-24T07:56:17.797Z,72.90
2018-06-24T07:58:45.369Z,72.30
2018-06-24T08:01:12.907Z,72.00
2018-06-24T08:03:41.429Z,72.00
2018-06-24T08:06:09.005Z,73.30
2018-06-24T08:08:36.567Z,73.30
2018-06-24T08:11:04.144Z,74.80
2018-06-24T08:13:31.701Z,75.50
2018-06-24T08:15:59.255Z,76.10
2018-06-24T08:18:26.824Z,76.60
2018-06-24T08:20:54.371Z,76.70
2018-06-24T08:23:21.906Z,76.70
2018-06-24T08:25:49.481Z,76.90
2018-06-24T08:28:17.082Z,77.10
2018-06-24T08:30:44.664Z,77.00
2018-06-24T08:33:12.204Z,76.70
2018-06-24T08:35:39.750Z,75.90
2018-06-24T08:38:07.337Z,75.70
2018-06-24T08:40:34.983Z,76.30
2018-06-24T08:43:02.600Z,76.40
2018-06-24T08:45:30.256Z,76.30
2018-06-24T08:47:57.821Z,76.20
2018-06-24T08:50:25.407Z,76.30
2018-06-24T08:52:52.998Z,76.10
2018-06-24T08:55:20.547Z,76.00
2018-06-24T08:57:48.074Z,76.20
2018-06-24T09:00:15.709Z,75.10
2018-06-24T09:02:43.274Z,74.00
2018-06-24T09:05:10.833Z,73.50
2018-06-24T09:07:38.464Z,71.90
2018-06-24T09:10:06.060Z,70.80
2018-06-24T09:12:33.618Z,71.40
2018-06-24T09:15:01.165Z,71.40
2018-06-24T09:17:28.793Z,71.20
2018-06-24T09:19:56.376Z,71.70
2018-06-24T09:22:23.945Z,70.20
2018-06-24T09:24:51.568Z,70.20
2018-06-24T09:27:19.107Z,70.30
2018-06-24T09:29:46.688Z,70.50
2018-06-24T09:32:14.344Z,71.10
2018-06-24T09:34:41.932Z,72.10
2018-06-24T09:37:09.466Z,71.80
2018-06-24T09:39:37.066Z,71.10
2018-06-24T09:42:04.851Z,69.30
2018-06-24T09:44:32.424Z,68.80
2018-06-24T09:47:00.010Z,68.60
2018-06-24T09:49:27.563Z,69.20
2018-06-24T09:51:55.133Z,67.60
2018-06-24T09:54:22.694Z,67.80
2018-06-24T09:56:50.252Z,68.50
2018-06-24T09:59:17.827Z,67.70
2018-06-24T10:01:45.411Z,66.20
2018-06-24T10:04:13.064Z,65.10
2018-06-24T10:06:40.620Z,62.90
2018-06-24T10:09:09.376Z,62.50
2018-06-24T10:11:36.946Z,61.90
2018-06-24T10:14:04.530Z,61.10
2018-06-24T10:16:32.126Z,61.20
2018-06-24T10:18:59.694Z,58.60
2018-06-24T10:21:27.251Z,58.90
2018-06-24T10:23:54.791Z,58.00
2018-06-24T10:26:22.351Z,59.00
2018-06-24T10:28:49.911Z,60.70
2018-06-24T10:31:17.542Z,59.70
2018-06-24T10:33:45.105Z,60.00
2018-06-24T10:36:12.851Z,60.90
2018-06-24T10:38:40.579Z,62.00
2018-06-24T10:41:08.238Z,63.10
2018-06-24T10:43:35.880Z,63.20
2018-06-24T10:46:03.786Z,62.40
2018-06-24T10:48:31.394Z,62.20
2018-06-24T10:50:58.993Z,61.00
2018-06-24T10:53:26.565Z,60.20
2018-06-24T10:55:54.139Z,60.80
2018-06-24T10:58:21.717Z,61.20
2018-06-24T11:00:49.309Z,59.50
2018-06-24T11:03:16.932Z,58.40
2018-06-24T11:05:44.487Z,57.60
2018-06-24T11:08:12.075Z,58.20
2018-06-24T11:10:39.672Z,58.10
2018-06-24T11:13:07.298Z,57.70
2018-06-24T11:15:34.940Z,57.50
2018-06-24T11:18:02.607Z,57.00
2018-06-24T11:20:30.220Z,56.80
2018-06-24T11:22:57.968Z,57.40
2018-06-24T11:25:25.633Z,56.90
2018-06-24T11:27:53.338Z,55.90
2018-06-24T11:30:20.962Z,56.10
2018-06-24T11:32:48.564Z,55.70
2018-06-24T11:35:16.319Z,54.90
2018-06-24T11:37:43.902Z,53.30
2018-06-24T11:40:11.516Z,52.60
2018-06-24T11:42:39.107Z,52.80
2018-06-24T11:45:06.684Z,52.80
2018-06-24T11:47:34.312Z,53.40
2018-06-24T11:50:01.961Z,53.30
2018-06-24T11:52:29.560Z,53.50
2018-06-24T11:54:57.081Z,53.50
2018-06-24T11:57:24.657Z,53.40
2018-06-24T11:59:52.223Z,53.10
2018-06-24T12:02:19.779Z,53.30
2018-06-24T12:04:47.369Z,53.70
2018-06-24T12:07:14.966Z,54.10
2018-06-24T12:09:42.534Z,54.40
2018-06-24T12:12:10.137Z,53.60
2018-06-24T12:14:37.739Z,53.50
2018-06-24T12:17:05.332Z,53.50
2018-06-24T12:19:32.876Z,53.10
2018-06-24T12:22:00.412Z,52.80
2018-06-24T12:24:28.036Z,51.70
2018-06-24T12:26:55.628Z,51.20
2018-06-24T12:29:23.193Z,51.40
2018-06-24T12:31:50.794Z,52.50
2018-06-24T12:34:18.354Z,52.70
2018-06-24T12:36:45.934Z,52.50
2018-06-24T12:39:14.745Z,52.30
2018-06-24T12:41:42.351Z,49.40
2018-06-24T12:44:10.139Z,48.90
2018-06-24T12:46:37.723Z,49.40
2018-06-24T12:49:05.821Z,48.70
2018-06-24T12:51:33.599Z,48.30
2018-06-24T12:54:01.153Z,48.50
2018-06-24T12:56:28.919Z,48.30
2018-06-24T12:58:56.666Z,48.60
2018-06-24T13:01:24.085Z,48.20
2018-06-24T13:03:51.676Z,48.30
2018-06-24T13:06:19.321Z,48.50
2018-06-24T13:08:46.931Z,48.40
2018-06-24T13:11:14.511Z,47.90
2018-06-24T13:13:42.132Z,47.40
2018-06-24T13:16:09.738Z,45.30
2018-06-24T13:18:37.331Z,45.00
2018-06-24T13:21:05.036Z,44.60
2018-06-24T13:23:32.921Z,44.70
2018-06-24T13:26:00.506Z,43.60
2018-06-24T13:28:28.280Z,42.60
2018-06-24T13:30:55.971Z,42.80
2018-06-24T13:33:23.676Z,43.60
2018-06-24T13:35:51.234Z,44.20
2018-06-24T13:38:19.163Z,44.60
2018-06-24T13:40:46.710Z,44.30
2018-06-24T13:43:14.284Z,44.70
2018-06-24T13:45:41.932Z,44.90
2018-06-24T13:48:09.493Z,44.40
2018-06-24T13:50:37.172Z,44.60
2018-06-24T13:53:04.772Z,45.30
2018-06-24T13:55:32.333Z,46.00
2018-06-24T13:57:59.983Z,46.80
2018-06-24T14:00:27.515Z,47.00
2018-06-24T14:02:55.142Z,47.00
2018-06-24T14:05:22.780Z,46.70
2018-06-24T14:07:50.382Z,46.90
2018-06-24T14:10:18.208Z,47.30
2018-06-24T14:12:45.788Z,47.60
2018-06-24T14:15:13.377Z,47.60
2018-06-24T14:17:40.965Z,48.10
2018-06-24T14:20:08.581Z,47.90
2018-06-24T14:22:36.256Z,47.70
2018-06-24T14:25:04.348Z,48.30
2018-06-24T14:27:31.932Z,48.20
2018-06-24T14:29:59.519Z,48.10
2018-06-24T14:32:27.094Z,47.70
2018-06-24T14:34:54.702Z,47.50
2018-06-24T14:37:22.314Z,47.50
2018-06-24T14:39:49.926Z,47.20
2018-06-24T14:42:17.740Z,47.50
2018-06-24T14:44:45.319Z,47.80
2018-06-24T14:47:12.960Z,48.20
2018-06-24T14:49:40.569Z,48.70
2018-06-24T14:52:08.204Z,49.50
2018-06-24T14:54:35.814Z,49.60
2018-06-24T14:57:03.430Z,50.10
2018-06-24T14:59:30.961Z,50.90
2018-06-24T15:01:58.593Z,52.10
2018-06-24T15:04:26.161Z,51.80
2018-06-24T15:06:53.757Z,52.20
2018-06-24T15:09:21.362Z,52.30
2018-06-24T15:11:48.956Z,52.40
2018-06-24T15:14:16.880Z,52.10
2018-06-24T15:16:44.531Z,51.90
2018-06-24T15:19:12.226Z,51.90
2018-06-24T15:21:39.889Z,51.80
2018-06-24T15:24:07.486Z,51.80
2018-06-24T15:29:02.600Z,51.30
2018-06-24T15:31:30.234Z,51.40
2018-06-24T15:33:57.878Z,51.40
2018-06-24T15:36:25.489Z,50.90
2018-06-24T15:38:53.059Z,51.20
2018-06-24T15:41:20.622Z,51.30
2018-06-24T15:43:48.226Z,51.70
2018-06-24T15:46:15.828Z,51.20
2018-06-24T15:48:44.159Z,51.40
2018-06-24T15:51:13.046Z,51.40
2018-06-24T15:53:40.667Z,51.60
2018-06-24T15:56:08.251Z,51.80
2018-06-24T15:58:35.879Z,51.40
2018-06-24T16:01:03.510Z,50.00
2018-06-24T16:03:31.065Z,47.50
2018-06-24T16:05:58.766Z,46.40
2018-06-24T16:08:26.494Z,46.20
2018-06-24T16:10:54.072Z,45.80
2018-06-24T16:13:21.685Z,46.10
2018-06-24T16:15:49.287Z,46.60
2018-06-24T16:18:17.095Z,46.70
2018-06-24T16:20:44.845Z,46.40
2018-06-24T16:23:12.459Z,46.10
2018-06-24T16:25:40.214Z,45.70
2018-06-24T16:28:08.150Z,45.30
2018-06-24T16:30:35.897Z,44.90
2018-06-24T16:33:03.534Z,45.30
2018-06-24T16:35:31.191Z,45.30
2018-06-24T16:37:58.788Z,45.40
2018-06-24T16:40:26.624Z,45.40
2018-06-24T16:42:54.216Z,46.20
2018-06-24T16:45:21.883Z,47.20
2018-06-24T16:47:49.469Z,48.60
2018-06-24T16:50:17.634Z,48.50
2018-06-24T16:52:45.024Z,48.00
2018-06-24T16:55:12.678Z,48.10
2018-06-24T16:57:40.298Z,48.60
2018-06-24T17:00:08.025Z,48.70
2018-06-24T17:02:35.852Z,49.50
2018-06-24T17:05:03.632Z,50.00
2018-06-24T17:07:31.661Z,49.60
2018-06-24T17:09:59.244Z,49.90
2018-06-24T17:12:27.073Z,50.40
2018-06-24T17:14:56.589Z,51.00
2018-06-24T17:17:24.336Z,51.40
2018-06-24T17:19:51.992Z,51.30
2018-06-24T17:22:19.639Z,51.50
2018-06-24T17:24:47.250Z,52.10
2018-06-24T17:27:14.854Z,52.70
2018-06-24T17:29:42.583Z,53.30
2018-06-24T17:32:10.165Z,53.90
2018-06-24T17:34:37.798Z,53.80
2018-06-24T17:37:05.473Z,53.90
2018-06-24T17:39:33.217Z,53.80
2018-06-24T17:42:01.265Z,54.50
2018-06-24T17:44:29.617Z,54.30
2018-06-24T17:46:57.252Z,53.70
2018-06-24T17:49:25.942Z,54.20
2018-06-24T17:51:53.647Z,54.20
2018-06-24T17:54:21.503Z,54.40
2018-06-24T17:56:49.148Z,54.50
2018-06-24T17:59:16.893Z,54.60
2018-06-24T18:01:44.607Z,54.70
2018-06-24T18:04:12.414Z,55.00
2018-06-24T18:06:41.029Z,55.50
2018-06-24T18:09:10.344Z,56.10
2018-06-24T18:11:38.557Z,55.90
2018-06-24T18:14:06.468Z,55.70
2018-06-24T18:16:34.561Z,55.90
2018-06-24T18:19:02.228Z,56.20
2018-06-24T18:21:29.942Z,56.40
2018-06-24T18:23:58.553Z,56.50
2018-06-24T18:26:27.029Z,56.90
2018-06-24T18:28:54.838Z,57.10
2018-06-24T18:31:24.364Z,57.30
2018-06-24T18:33:52.299Z,57.40
2018-06-24T18:36:20.081Z,57.40
2018-06-24T18:38:49.107Z,57.30
2018-06-24T18:41:16.957Z,57.70
2018-06-24T18:43:45.410Z,57.80
2018-06-24T18:46:13.125Z,58.00
2018-06-24T18:48:41.470Z,58.10
2018-06-24T18:51:09.456Z,58.40
2018-06-24T18:53:37.126Z,59.00
2018-06-24T18:56:04.917Z,59.20
2018-06-24T18:58:32.666Z,59.70
2018-06-24T19:01:00.308Z,60.20
2018-06-24T19:03:29.079Z,60.40
2018-06-24T19:05:57.741Z,60.70
2018-06-24T19:08:25.555Z,61.00
2018-06-24T19:10:53.259Z,61.50
2018-06-24T19:13:21.108Z,61.40
2018-06-24T19:15:48.810Z,61.50
2018-06-24T19:18:17.101Z,61.50
2018-06-24T19:20:45.995Z,61.50
2018-06-24T19:23:13.756Z,61.60
2018-06-24T19:25:41.496Z,61.70
2018-06-24T19:28:09.207Z,61.80
2018-06-24T19:30:36.992Z,61.90
2018-06-24T19:33:04.954Z,62.30
2018-06-24T19:35:33.163Z,62.80
2018-06-24T19:38:01.091Z,63.30
2018-06-24T19:40:28.806Z,64.00
2018-06-24T19:42:56.513Z,64.80
2018-06-24T19:45:24.191Z,65.20
2018-06-24T19:47:51.934Z,65.60
2018-06-24T19:50:19.995Z,66.00
2018-06-24T19:52:48.128Z,66.00
2018-06-24T19:55:15.800Z,65.90
2018-06-24T19:57:43.612Z,66.00
2018-06-24T20:00:11.276Z,66.40
2018-06-24T20:02:39.656Z,66.20
2018-06-24T20:05:07.607Z,66.30
2018-06-24T20:07:35.426Z,66.50
2018-06-24T20:10:03.143Z,67.10
2018-06-24T20:12:30.819Z,67.60
2018-06-24T20:14:58.508Z,68.00
2018-06-24T20:17:26.143Z,68.20
2018-06-24T20:19:53.833Z,68.40
2018-06-24T20:22:21.532Z,68.80
2018-06-24T20:24:49.193Z,69.40
2018-06-24T20:27:17.016Z,69.70
2018-06-24T20:29:44.651Z,69.90
2018-06-24T20:32:12.465Z,70.50
2018-06-24T20:34:40.212Z,71.50
2018-06-24T20:37:08.152Z,72.30
2018-06-24T20:39:36.713Z,72.90
2018-06-24T20:42:04.750Z,73.40
2018-06-24T20:44:32.344Z,73.90
2018-06-24T20:47:01.092Z,74.20
2018-06-24T20:49:28.807Z,73.60
2018-06-24T20:51:56.412Z,73.10
2018-06-24T20:54:24.072Z,72.60
2018-06-24T20:56:51.856Z,72.60
2018-06-24T20:59:19.468Z,72.60
2018-06-24T21:01:47.034Z,72.90
2018-06-24T21:04:14.644Z,73.20
2018-06-24T21:06:42.292Z,73.60
2018-06-24T21:09:10.849Z,74.00
2018-06-24T21:11:39.974Z,74.30
2018-06-24T21:14:07.552Z,74.20
2018-06-24T21:16:35.073Z,73.90
2018-06-24T21:19:02.696Z,74.00
2018-06-24T21:21:30.315Z,73.80
2018-06-24T21:23:57.831Z,74.10
2018-06-24T21:26:26.164Z,74.50
2018-06-24T21:31:21.453Z,75.40
2018-06-24T21:33:49.029Z,76.20
2018-06-24T21:36:16.898Z,76.10
2018-06-24T21:38:44.476Z,76.00
2018-06-24T21:41:12.037Z,76.30
2018-06-24T21:43:40.606Z,76.60
2018-06-24T21:46:08.323Z,77.00
2018-06-24T21:48:36.149Z,77.60
2018-06-24T21:51:03.970Z,78.10
2018-06-24T21:53:31.538Z,78.40
2018-06-24T21:55:59.133Z,78.80
2018-06-24T21:58:26.681Z,79.20
2018-06-24T22:00:54.336Z,79.40
2018-06-24T22:03:22.021Z,79.60
2018-06-24T22:05:49.692Z,79.90
2018-06-24T22:08:18.939Z,80.20
2018-06-24T22:10:46.694Z,80.90
2018-06-24T22:13:14.212Z,81.80
2018-06-24T22:15:41.821Z,82.80
2018-06-24T22:18:09.369Z,83.80
2018-06-24T22:20:36.908Z,84.70
2018-06-24T22:23:04.494Z,85.60
2018-06-24T22:25:32.112Z,86.50
2018-06-24T22:27:59.672Z,87.50
2018-06-24T22:30:27.288Z,88.30
2018-06-24T22:32:54.802Z,89.00
2018-06-24T22:35:22.332Z,89.70
2018-06-24T22:37:49.860Z,90.00
2018-06-24T22:40:17.402Z,90.20
2018-06-24T22:42:44.947Z,90.20
2018-06-24T22:45:12.674Z,90.30
2018-06-24T22:47:40.258Z,90.50
2018-06-24T22:50:07.782Z,90.70
2018-06-24T22:52:35.316Z,90.90
2018-06-24T22:55:02.856Z,91.00
2018-06-24T22:57:30.368Z,91.10
2018-06-24T23:00:15.114Z,91.10
2018-06-24T23:02:43.212Z,91.20
2018-06-24T23:05:11.414Z,91.30
2018-06-24T23:07:40.336Z,91.50
2018-06-24T23:10:07.890Z,91.60
2018-06-24T23:12:35.462Z,91.60
2018-06-24T23:15:03.900Z,91.60
2018-06-24T23:17:31.453Z,91.60
2018-06-24T23:19:58.996Z,91.80
2018-06-24T23:22:26.568Z,92.40
2018-06-24T23:24:54.202Z,92.60
2018-06-24T23:27:21.819Z,93.00
2018-06-24T23:29:50.529Z,93.30
2018-06-24T23:32:18.174Z,93.60
2018-06-24T23:34:45.927Z,93.80
2018-06-24T23:37:13.477Z,94.10
2018-06-24T23:39:41.039Z,94.70
2018-06-24T23:42:08.729Z,95.40
2018-06-24T23:44:36.298Z,95.80
2018-06-24T23:47:04.024Z,96.20
2018-06-24T23:49:32.064Z,96.60
2018-06-24T23:52:00.573Z,97.10
2018-06-24T23:54:28.337Z,97.30
2018-06-24T23:56:56.015Z,97.70
2018-06-24T23:59:23.668Z,98.00
